createdAt,value
2023-10-22T00:00:47.017Z,11.46
2023-10-22T00:01:47.027Z,11.47
2023-10-22T00:02:47.076Z,11.46
2023-10-22T00:03:47.146Z,11.44
2023-10-22T00:04:47.004Z,11.44
2023-10-22T00:05:46.990Z,11.41
2023-10-22T00:06:46.945Z,11.41
2023-10-22T00:07:46.982Z,11.41
2023-10-22T00:08:46.976Z,11.36
2023-10-22T00:09:46.954Z,11.36
2023-10-22T00:10:46.870Z,11.34
2023-10-22T00:11:46.926Z,11.34
2023-10-22T00:12:46.857Z,11.32
2023-10-22T00:13:46.958Z,11.32
2023-10-22T00:14:46.882Z,11.32
2023-10-22T00:15:46.825Z,11.31
2023-10-22T00:16:46.797Z,11.29
2023-10-22T00:17:46.821Z,11.31
2023-10-22T00:18:46.854Z,11.29
2023-10-22T00:19:46.811Z,11.28
2023-10-22T00:20:46.817Z,11.29
2023-10-22T00:21:46.739Z,11.31
2023-10-22T00:22:46.747Z,11.29
2023-10-22T00:23:46.772Z,11.29
2023-10-22T00:24:46.739Z,11.31
2023-10-22T00:25:46.709Z,11.28
2023-10-22T00:26:46.757Z,11.27
2023-10-22T00:27:46.659Z,11.25
2023-10-22T00:28:46.662Z,11.24
2023-10-22T00:29:46.711Z,11.21
2023-10-22T00:30:46.625Z,11.21
2023-10-22T00:31:46.684Z,11.25
2023-10-22T00:32:46.753Z,11.25
2023-10-22T00:33:46.788Z,11.25
2023-10-22T00:34:46.572Z,11.24
2023-10-22T00:35:46.562Z,11.24
2023-10-22T00:36:46.577Z,11.25
2023-10-22T00:37:46.537Z,11.21
2023-10-22T00:38:46.577Z,11.20
2023-10-22T00:39:46.505Z,11.19
2023-10-22T00:40:46.495Z,11.20
2023-10-22T00:41:46.477Z,11.20
2023-10-22T00:42:46.495Z,11.19
2023-10-22T00:43:46.523Z,11.19
2023-10-22T00:44:46.454Z,11.19
2023-10-22T00:45:46.472Z,11.17
2023-10-22T00:46:46.489Z,11.16
2023-10-22T00:47:46.470Z,11.16
2023-10-22T00:48:46.457Z,11.17
2023-10-22T00:49:48.045Z,11.17
2023-10-22T00:50:46.385Z,11.17
2023-10-22T00:51:46.423Z,11.16
2023-10-22T00:52:46.428Z,11.16
2023-10-22T00:53:46.385Z,11.14
2023-10-22T00:54:46.324Z,11.14
2023-10-22T00:55:46.376Z,11.14
2023-10-22T00:56:46.311Z,11.13
2023-10-22T00:57:46.279Z,11.10
2023-10-22T00:58:46.260Z,11.07
2023-10-22T00:59:46.297Z,11.09
2023-10-22T01:00:46.247Z,11.07
2023-10-22T01:01:46.282Z,11.06
2023-10-22T01:02:46.401Z,11.06
2023-10-22T01:03:46.244Z,11.02
2023-10-22T01:04:46.266Z,11.01
2023-10-22T01:05:46.228Z,11.01
2023-10-22T01:06:46.161Z,11.01
2023-10-22T01:07:46.142Z,10.99
2023-10-22T01:08:46.244Z,10.98
2023-10-22T01:09:46.179Z,10.96
2023-10-22T01:10:46.159Z,10.94
2023-10-22T01:11:46.104Z,10.92
2023-10-22T01:12:46.088Z,10.91
2023-10-22T01:13:46.112Z,10.92
2023-10-22T01:14:46.082Z,10.91
2023-10-22T01:15:46.120Z,10.89
2023-10-22T01:16:46.032Z,10.89
2023-10-22T01:17:46.142Z,10.89
2023-10-22T01:18:46.186Z,10.92
2023-10-22T01:19:46.039Z,10.92
2023-10-22T01:20:46.016Z,10.92
2023-10-22T01:21:45.955Z,10.92
2023-10-22T01:22:45.945Z,10.91
2023-10-22T01:23:45.999Z,10.89
2023-10-22T01:24:45.947Z,10.91
2023-10-22T01:25:45.955Z,10.91
2023-10-22T01:26:45.940Z,10.89
2023-10-22T01:27:45.916Z,10.91
2023-10-22T01:28:45.885Z,10.89
2023-10-22T01:29:45.901Z,10.89
2023-10-22T01:30:45.880Z,10.88
2023-10-22T01:31:45.884Z,10.86
2023-10-22T01:32:45.853Z,10.84
2023-10-22T01:33:45.826Z,10.83
2023-10-22T01:34:45.809Z,10.80
2023-10-22T01:35:45.815Z,10.77
2023-10-22T01:36:45.768Z,10.77
2023-10-22T01:37:45.772Z,10.74
2023-10-22T01:38:45.832Z,10.70
2023-10-22T01:39:45.802Z,10.68
2023-10-22T01:40:45.750Z,10.65
2023-10-22T01:41:45.744Z,10.62
2023-10-22T01:42:45.712Z,10.62
2023-10-22T01:43:45.686Z,10.59
2023-10-22T01:44:45.746Z,10.62
2023-10-22T01:45:45.668Z,10.60
2023-10-22T01:46:45.711Z,10.63
2023-10-22T01:47:45.724Z,10.63
2023-10-22T01:48:45.662Z,10.63
2023-10-22T01:49:45.625Z,10.63
2023-10-22T01:50:45.711Z,10.63
2023-10-22T01:51:45.624Z,10.63
2023-10-22T01:52:45.571Z,10.63
2023-10-22T01:53:45.607Z,10.60
2023-10-22T01:54:45.553Z,10.62
2023-10-22T01:55:45.537Z,10.59
2023-10-22T01:56:45.612Z,10.58
2023-10-22T01:57:45.496Z,10.56
2023-10-22T01:58:45.496Z,10.52
2023-10-22T01:59:45.497Z,10.51
2023-10-22T02:00:45.528Z,10.51
2023-10-22T02:01:45.528Z,10.47
2023-10-22T02:02:45.490Z,10.47
2023-10-22T02:03:45.504Z,10.44
2023-10-22T02:04:45.443Z,10.43
2023-10-22T02:05:45.456Z,10.42
2023-10-22T02:06:45.403Z,10.44
2023-10-22T02:07:45.447Z,10.44
2023-10-22T02:08:45.384Z,10.44
2023-10-22T02:09:45.345Z,10.47
2023-10-22T02:10:45.372Z,10.51
2023-10-22T02:11:45.371Z,10.46
2023-10-22T02:12:45.386Z,10.44
2023-10-22T02:13:45.352Z,10.46
2023-10-22T02:14:45.371Z,10.44
2023-10-22T02:15:45.280Z,10.44
2023-10-22T02:16:45.296Z,10.43
2023-10-22T02:17:45.331Z,10.44
2023-10-22T02:18:45.255Z,10.47
2023-10-22T02:19:45.243Z,10.46
2023-10-22T02:20:45.289Z,10.47
2023-10-22T02:21:45.219Z,10.47
2023-10-22T02:22:45.212Z,10.47
2023-10-22T02:23:45.192Z,10.51
2023-10-22T02:24:45.172Z,10.46
2023-10-22T02:25:45.161Z,10.44
2023-10-22T02:26:45.180Z,10.43
2023-10-22T02:27:45.114Z,10.43
2023-10-22T02:28:45.145Z,10.43
2023-10-22T02:29:45.128Z,10.42
2023-10-22T02:30:45.103Z,10.40
2023-10-22T02:31:45.098Z,10.40
2023-10-22T02:32:45.122Z,10.39
2023-10-22T02:33:45.114Z,10.42
2023-10-22T02:34:45.024Z,10.40
2023-10-22T02:35:45.054Z,10.40
2023-10-22T02:36:45.001Z,10.40
2023-10-22T02:37:45.129Z,10.39
2023-10-22T02:38:44.985Z,10.37
2023-10-22T02:39:44.946Z,10.34
2023-10-22T02:40:44.946Z,10.34
2023-10-22T02:41:44.976Z,10.33
2023-10-22T02:42:44.928Z,10.30
2023-10-22T02:43:44.939Z,10.30
2023-10-22T02:44:44.962Z,10.28
2023-10-22T02:45:44.863Z,10.25
2023-10-22T02:46:44.882Z,10.24
2023-10-22T02:47:44.917Z,10.22
2023-10-22T02:48:44.928Z,10.21
2023-10-22T02:49:44.834Z,10.21
2023-10-22T02:50:44.823Z,10.18
2023-10-22T02:51:44.813Z,10.15
2023-10-22T02:52:44.829Z,10.14
2023-10-22T02:53:44.794Z,10.10
2023-10-22T02:54:44.800Z,10.09
2023-10-22T02:55:44.749Z,10.04
2023-10-22T02:56:44.788Z,10.03
2023-10-22T02:57:44.756Z,10.00
2023-10-22T02:58:44.709Z,9.99
2023-10-22T02:59:44.778Z,9.96
2023-10-22T03:00:44.850Z,9.96
2023-10-22T03:01:44.778Z,9.91
2023-10-22T03:02:44.797Z,9.89
2023-10-22T03:03:44.828Z,9.88
2023-10-22T03:04:44.715Z,9.85
2023-10-22T03:05:44.644Z,9.83
2023-10-22T03:06:44.623Z,9.82
2023-10-22T03:07:44.616Z,9.79
2023-10-22T03:08:44.648Z,9.76
2023-10-22T03:09:44.576Z,9.75
2023-10-22T03:10:44.565Z,9.70
2023-10-22T03:11:44.697Z,9.67
2023-10-22T03:12:44.536Z,9.64
2023-10-22T03:13:44.552Z,9.60
2023-10-22T03:14:44.516Z,9.57
2023-10-22T03:15:44.517Z,9.53
2023-10-22T03:16:44.530Z,9.50
2023-10-22T03:17:44.580Z,9.48
2023-10-22T03:18:44.475Z,9.48
2023-10-22T03:19:44.450Z,9.46
2023-10-22T03:20:44.451Z,9.43
2023-10-22T03:21:44.460Z,9.39
2023-10-22T03:22:44.416Z,9.38
2023-10-22T03:23:44.447Z,9.34
2023-10-22T03:24:44.420Z,9.32
2023-10-22T03:25:44.394Z,9.30
2023-10-22T03:26:44.385Z,9.28
2023-10-22T03:27:44.368Z,9.27
2023-10-22T03:28:44.346Z,9.23
2023-10-22T03:29:44.371Z,9.21
2023-10-22T03:30:44.401Z,9.20
2023-10-22T03:31:44.374Z,9.16
2023-10-22T03:32:44.373Z,9.13
2023-10-22T03:33:44.445Z,9.13
2023-10-22T03:34:44.301Z,9.12
2023-10-22T03:35:44.278Z,9.10
2023-10-22T03:36:44.243Z,9.09
2023-10-22T03:37:44.279Z,9.06
2023-10-22T03:38:44.256Z,9.05
2023-10-22T03:39:44.224Z,9.04
2023-10-22T03:40:44.189Z,9.02
2023-10-22T03:41:44.278Z,9.02
2023-10-22T03:42:44.183Z,9.01
2023-10-22T03:43:44.171Z,9.01
2023-10-22T03:44:44.183Z,9.04
2023-10-22T03:45:44.174Z,9.04
2023-10-22T03:46:44.104Z,9.05
2023-10-22T03:47:44.161Z,9.05
2023-10-22T03:48:44.359Z,9.06
2023-10-22T04:03:10.866Z,9.15
2023-10-22T04:04:10.651Z,9.12
2023-10-22T04:05:10.586Z,9.13
2023-10-22T04:06:10.609Z,9.15
2023-10-22T04:07:10.575Z,9.15
2023-10-22T04:08:10.586Z,9.16
2023-10-22T04:09:10.651Z,9.16
2023-10-22T04:10:10.598Z,9.16
2023-10-22T04:11:10.522Z,9.18
2023-10-22T04:12:10.512Z,9.16
2023-10-22T04:13:10.517Z,9.16
2023-10-22T04:14:10.566Z,9.18
2023-10-22T04:15:10.478Z,9.16
2023-10-22T04:16:10.501Z,9.15
2023-10-22T04:17:10.433Z,9.13
2023-10-22T04:18:10.571Z,9.13
2023-10-22T04:19:10.414Z,9.15
2023-10-22T04:20:10.438Z,9.12
2023-10-22T04:21:10.426Z,9.12
2023-10-22T04:22:10.389Z,9.12
2023-10-22T04:23:10.359Z,9.12
2023-10-22T04:24:10.389Z,9.13
2023-10-22T04:25:10.369Z,9.15
2023-10-22T04:26:10.353Z,9.16
2023-10-22T04:27:10.420Z,9.15
2023-10-22T04:28:10.288Z,9.13
2023-10-22T04:29:10.288Z,9.13
2023-10-22T04:30:10.272Z,9.15
2023-10-22T04:31:10.323Z,9.15
2023-10-22T04:32:10.226Z,9.12
2023-10-22T04:33:10.344Z,9.13
2023-10-22T04:34:10.204Z,9.15
2023-10-22T04:35:10.221Z,9.16
2023-10-22T04:36:10.278Z,9.16
2023-10-22T04:37:10.197Z,9.16
2023-10-22T04:38:10.186Z,9.13
2023-10-22T04:39:10.194Z,9.13
2023-10-22T04:40:10.123Z,9.12
2023-10-22T04:41:10.150Z,9.09
2023-10-22T04:42:10.112Z,9.10
2023-10-22T04:43:10.158Z,9.13
2023-10-22T04:44:10.090Z,9.13
2023-10-22T04:45:10.158Z,9.13
2023-10-22T04:46:10.153Z,9.15
2023-10-22T04:47:10.020Z,9.15
2023-10-22T04:48:10.066Z,9.15
2023-10-22T04:49:09.992Z,9.16
2023-10-22T04:50:10.146Z,9.16
2023-10-22T04:51:10.007Z,9.16
2023-10-22T04:52:09.964Z,9.21
2023-10-22T04:53:17.457Z,9.20
2023-10-22T04:54:09.942Z,9.21
2023-10-22T04:55:09.916Z,9.21
2023-10-22T04:56:09.945Z,9.21
2023-10-22T04:57:16.940Z,9.20
2023-10-22T04:58:16.897Z,9.16
2023-10-22T04:59:17.383Z,9.13
2023-10-22T05:00:16.891Z,9.13
2023-10-22T05:01:18.603Z,9.13
2023-10-22T05:02:09.835Z,9.15
2023-10-22T05:03:09.921Z,9.12
2023-10-22T05:04:09.856Z,9.09
2023-10-22T05:05:09.804Z,9.05
2023-10-22T05:06:11.340Z,9.05
2023-10-22T05:07:09.768Z,9.02
2023-10-22T05:08:09.779Z,8.99
2023-10-22T05:09:09.767Z,9.01
2023-10-22T05:10:09.762Z,8.97
2023-10-22T05:11:09.747Z,8.96
2023-10-22T05:12:09.760Z,8.96
2023-10-22T05:13:09.705Z,8.96
2023-10-22T05:14:13.027Z,8.93
2023-10-22T05:15:09.711Z,8.93
2023-10-22T05:16:09.731Z,8.94
2023-10-22T05:17:09.633Z,8.97
2023-10-22T05:18:18.236Z,8.97
2023-10-22T05:19:09.603Z,8.99
2023-10-22T05:20:09.609Z,8.97
2023-10-22T05:21:09.602Z,8.96
2023-10-22T05:22:18.261Z,8.94
2023-10-22T05:23:09.552Z,8.97
2023-10-22T05:24:17.141Z,8.97
2023-10-22T05:25:17.081Z,8.99
2023-10-22T05:26:09.519Z,9.04
2023-10-22T05:27:09.548Z,9.05
2023-10-22T05:28:09.540Z,9.10
2023-10-22T05:29:09.482Z,9.20
2023-10-22T05:30:09.490Z,9.24
2023-10-22T05:31:09.487Z,9.27
2023-10-22T05:32:09.491Z,9.31
2023-10-22T05:33:09.526Z,9.30
2023-10-22T05:34:16.468Z,9.35
2023-10-22T05:35:09.402Z,9.39
2023-10-22T05:36:09.424Z,9.40
2023-10-22T05:37:09.381Z,9.42
2023-10-22T05:38:09.351Z,9.42
2023-10-22T05:39:09.404Z,9.42
2023-10-22T05:40:09.390Z,9.39
2023-10-22T05:41:09.329Z,9.38
2023-10-22T05:42:09.392Z,9.31
2023-10-22T05:43:09.294Z,9.27
2023-10-22T05:44:09.281Z,9.25
2023-10-22T05:45:09.456Z,9.20
2023-10-22T05:46:09.355Z,9.15
2023-10-22T05:47:09.255Z,9.12
2023-10-22T05:48:09.292Z,9.10
2023-10-22T05:49:09.208Z,9.06
2023-10-22T05:50:09.224Z,9.04
2023-10-22T05:51:09.260Z,9.06
2023-10-22T05:52:09.209Z,9.05
2023-10-22T05:53:09.174Z,9.04
2023-10-22T05:54:11.900Z,9.02
2023-10-22T05:55:09.138Z,9.02
2023-10-22T05:56:09.134Z,8.97
2023-10-22T05:57:09.174Z,8.99
2023-10-22T05:58:09.149Z,8.97
2023-10-22T05:59:09.088Z,8.99
2023-10-22T06:00:09.083Z,9.02
2023-10-22T06:01:09.074Z,9.06
2023-10-22T06:02:09.043Z,9.10
2023-10-22T06:03:09.112Z,9.15
2023-10-22T06:04:09.117Z,9.18
2023-10-22T06:05:20.921Z,9.20
2023-10-22T06:06:10.023Z,9.24
2023-10-22T06:07:09.004Z,9.27
2023-10-22T06:08:08.965Z,9.31
2023-10-22T06:09:09.088Z,9.32
2023-10-22T06:10:08.958Z,9.32
2023-10-22T06:11:08.991Z,9.32
2023-10-22T06:12:08.949Z,9.35
2023-10-22T06:13:08.906Z,9.40
2023-10-22T06:14:10.283Z,9.42
2023-10-22T06:15:08.938Z,9.42
2023-10-22T06:16:09.257Z,9.45
2023-10-22T06:17:08.844Z,9.45
2023-10-22T06:18:08.874Z,9.46
2023-10-22T06:19:08.815Z,9.49
2023-10-22T06:20:08.824Z,9.50
2023-10-22T06:21:08.851Z,9.49
2023-10-22T06:22:08.800Z,9.50
2023-10-22T06:23:08.763Z,9.49
2023-10-22T06:24:08.795Z,9.50
2023-10-22T06:25:08.742Z,9.53
2023-10-22T06:26:08.738Z,9.56
2023-10-22T06:27:08.802Z,9.57
2023-10-22T06:28:08.715Z,9.60
2023-10-22T06:29:08.726Z,9.63
2023-10-22T06:30:08.718Z,9.63
2023-10-22T06:31:08.675Z,9.64
2023-10-22T06:32:08.708Z,9.66
2023-10-22T06:33:08.819Z,9.66
2023-10-22T06:34:08.753Z,9.67
2023-10-22T06:35:08.618Z,9.67
2023-10-22T06:36:08.619Z,9.66
2023-10-22T06:37:08.593Z,9.66
2023-10-22T06:38:08.571Z,9.66
2023-10-22T06:39:08.665Z,9.66
2023-10-22T06:40:08.544Z,9.66
2023-10-22T06:41:08.521Z,9.66
2023-10-22T06:42:08.541Z,9.64
2023-10-22T06:43:08.505Z,9.63
2023-10-22T06:44:08.489Z,9.63
2023-10-22T06:45:08.585Z,9.61
2023-10-22T06:46:08.491Z,9.58
2023-10-22T06:47:08.448Z,9.57
2023-10-22T06:48:08.552Z,9.52
2023-10-22T06:49:08.417Z,9.50
2023-10-22T06:50:08.390Z,9.50
2023-10-22T06:51:08.416Z,9.48
2023-10-22T06:52:08.380Z,9.46
2023-10-22T06:53:08.386Z,9.43
2023-10-22T06:54:08.389Z,9.38
2023-10-22T06:55:08.352Z,9.31
2023-10-22T06:56:08.329Z,9.25
2023-10-22T06:57:08.330Z,9.24
2023-10-22T06:58:08.296Z,9.24
2023-10-22T06:59:08.298Z,9.23
2023-10-22T07:00:08.327Z,9.20
2023-10-22T07:01:08.292Z,9.18
2023-10-22T07:02:08.239Z,9.15
2023-10-22T07:03:08.366Z,9.10
2023-10-22T07:04:08.337Z,9.09
2023-10-22T07:05:08.264Z,9.09
2023-10-22T07:06:08.273Z,9.09
2023-10-22T07:07:08.176Z,9.06
2023-10-22T07:08:08.164Z,9.06
2023-10-22T07:09:08.230Z,9.09
2023-10-22T07:10:08.146Z,9.12
2023-10-22T07:11:08.163Z,9.06
2023-10-22T07:12:08.159Z,9.06
2023-10-22T07:13:08.115Z,9.16
2023-10-22T07:14:08.124Z,9.24
2023-10-22T07:15:08.184Z,9.30
2023-10-22T07:16:08.150Z,9.35
2023-10-22T07:17:08.078Z,9.40
2023-10-22T07:18:08.135Z,9.48
2023-10-22T07:19:08.066Z,9.53
2023-10-22T07:20:08.021Z,9.58
2023-10-22T07:21:08.055Z,9.66
2023-10-22T07:22:08.029Z,9.68
2023-10-22T07:23:08.016Z,9.71
2023-10-22T07:24:08.030Z,9.76
2023-10-22T07:25:07.951Z,9.82
2023-10-22T07:26:07.952Z,9.85
2023-10-22T07:27:07.946Z,9.93
2023-10-22T07:28:07.932Z,9.97
2023-10-22T07:29:07.919Z,10.01
2023-10-22T07:30:07.942Z,10.06
2023-10-22T07:31:07.866Z,10.10
2023-10-22T07:32:07.873Z,10.14
2023-10-22T07:33:07.917Z,10.18
2023-10-22T07:34:07.835Z,10.19
2023-10-22T07:35:07.839Z,10.24
2023-10-22T07:36:07.901Z,10.26
2023-10-22T07:37:07.808Z,10.30
2023-10-22T07:38:07.794Z,10.33
2023-10-22T07:39:07.836Z,10.36
2023-10-22T07:40:07.763Z,10.39
2023-10-22T07:41:07.768Z,10.42
2023-10-22T07:42:07.776Z,10.47
2023-10-22T07:43:07.732Z,10.52
2023-10-22T07:44:07.700Z,10.56
2023-10-22T07:45:07.735Z,10.60
2023-10-22T07:46:07.729Z,10.65
2023-10-22T07:47:07.684Z,10.70
2023-10-22T07:48:07.705Z,10.76
2023-10-22T07:49:07.646Z,10.78
2023-10-22T07:50:07.688Z,10.83
2023-10-22T07:51:07.644Z,10.89
2023-10-22T07:52:07.652Z,10.91
2023-10-22T07:53:07.599Z,10.94
2023-10-22T07:54:07.618Z,10.98
2023-10-22T07:55:07.574Z,11.01
2023-10-22T07:56:07.559Z,11.03
2023-10-22T07:57:07.563Z,11.09
2023-10-22T07:58:07.550Z,11.10
2023-10-22T07:59:07.528Z,11.11
2023-10-22T08:00:07.541Z,11.16
2023-10-22T08:01:07.804Z,11.20
2023-10-22T08:02:07.485Z,11.25
2023-10-22T08:03:07.611Z,11.29
2023-10-22T08:04:07.580Z,11.31
2023-10-22T08:05:07.444Z,11.35
2023-10-22T08:06:07.531Z,11.36
2023-10-22T08:07:07.401Z,11.39
2023-10-22T08:08:07.402Z,11.46
2023-10-22T08:09:07.409Z,11.52
2023-10-22T08:10:07.406Z,11.56
2023-10-22T08:11:07.413Z,11.62
2023-10-22T08:12:07.407Z,11.65
2023-10-22T08:13:07.351Z,11.70
2023-10-22T08:14:07.337Z,11.75
2023-10-22T08:15:07.395Z,11.78
2023-10-22T08:16:07.387Z,11.85
2023-10-22T08:17:07.283Z,11.89
2023-10-22T08:18:07.393Z,11.94
2023-10-22T08:19:07.265Z,11.94
2023-10-22T08:20:07.265Z,12.01
2023-10-22T08:21:07.288Z,12.02
2023-10-22T08:22:07.241Z,12.05
2023-10-22T08:23:07.223Z,12.09
2023-10-22T08:24:07.269Z,12.15
2023-10-22T08:25:07.186Z,12.20
2023-10-22T08:26:07.198Z,12.23
2023-10-22T08:27:07.213Z,12.29
2023-10-22T08:28:07.203Z,12.33
2023-10-22T08:29:07.144Z,12.38
2023-10-22T08:30:07.225Z,12.38
2023-10-22T08:31:07.145Z,12.39
2023-10-22T08:32:07.115Z,12.42
2023-10-22T08:33:07.177Z,12.48
2023-10-22T08:34:07.090Z,12.51
2023-10-22T08:35:07.081Z,12.51
2023-10-22T08:36:07.129Z,12.59
2023-10-22T08:37:07.036Z,12.67
2023-10-22T08:38:07.028Z,12.75
2023-10-22T08:39:07.077Z,12.84
2023-10-22T08:40:07.013Z,12.93
2023-10-22T08:41:07.000Z,12.95
2023-10-22T08:42:07.058Z,12.97
2023-10-22T08:43:06.967Z,13.00
2023-10-22T08:44:06.956Z,13.07
2023-10-22T08:45:06.951Z,13.15
2023-10-22T08:46:06.986Z,13.29
2023-10-22T08:47:06.891Z,13.36
2023-10-22T08:48:06.940Z,13.41
2023-10-22T08:49:06.892Z,13.52
2023-10-22T08:50:06.870Z,13.58
2023-10-22T08:51:06.916Z,13.63
2023-10-22T08:52:06.860Z,13.73
2023-10-22T08:53:06.831Z,13.80
2023-10-22T08:54:06.862Z,13.92
2023-10-22T08:55:07.901Z,13.96
2023-10-22T08:56:06.780Z,14.02
2023-10-22T08:57:06.808Z,14.10
2023-10-22T08:58:06.760Z,14.17
2023-10-22T08:59:06.736Z,14.27
2023-10-22T09:00:06.796Z,14.29
2023-10-22T09:01:06.729Z,14.37
2023-10-22T09:02:06.722Z,14.38
2023-10-22T09:03:07.019Z,14.42
2023-10-22T09:04:06.865Z,14.53
2023-10-22T09:05:06.647Z,14.64
2023-10-22T09:06:06.707Z,14.78
2023-10-22T09:07:06.650Z,14.84
2023-10-22T09:08:06.651Z,14.86
2023-10-22T09:09:06.688Z,14.98
2023-10-22T09:10:06.611Z,15.03
2023-10-22T09:11:06.588Z,15.12
2023-10-22T09:12:06.631Z,15.27
2023-10-22T09:13:06.600Z,15.19
2023-10-22T09:14:06.553Z,15.20
2023-10-22T09:15:06.589Z,15.26
2023-10-22T09:16:06.537Z,15.38
2023-10-22T09:17:06.539Z,15.49
2023-10-22T09:18:06.571Z,15.46
2023-10-22T09:19:06.486Z,15.42
2023-10-22T09:20:06.547Z,15.39
2023-10-22T09:21:06.558Z,15.42
2023-10-22T09:22:06.464Z,15.30
2023-10-22T09:23:06.466Z,15.26
2023-10-22T09:24:06.516Z,15.21
2023-10-22T09:25:06.482Z,15.23
2023-10-22T09:26:06.395Z,15.20
2023-10-22T09:27:06.447Z,15.20
2023-10-22T09:28:06.377Z,15.27
2023-10-22T09:29:06.385Z,15.35
2023-10-22T09:30:06.374Z,15.28
2023-10-22T09:31:06.336Z,15.26
2023-10-22T09:32:06.313Z,15.17
2023-10-22T09:33:06.426Z,15.11
2023-10-22T09:34:06.300Z,15.11
2023-10-22T09:35:06.322Z,15.08
2023-10-22T09:36:06.429Z,15.08
2023-10-22T09:37:06.250Z,15.11
2023-10-22T09:38:06.245Z,15.12
2023-10-22T09:39:06.302Z,15.13
2023-10-22T09:40:06.211Z,15.12
2023-10-22T09:41:06.220Z,15.19
2023-10-22T09:43:06.190Z,15.28
2023-10-22T09:44:06.191Z,15.35
2023-10-22T09:45:06.193Z,15.38
2023-10-22T09:46:06.151Z,15.42
2023-10-22T09:47:06.120Z,15.42
2023-10-22T10:03:40.747Z,16.14
2023-10-22T10:04:40.655Z,16.14
2023-10-22T10:05:40.647Z,16.03
2023-10-22T10:06:40.635Z,16.06
2023-10-22T10:07:40.622Z,16.11
2023-10-22T10:08:40.605Z,16.03
2023-10-22T10:09:40.596Z,15.96
2023-10-22T10:10:41.301Z,15.89
2023-10-22T10:11:40.558Z,15.96
2023-10-22T10:12:40.564Z,16.04
2023-10-22T10:13:40.532Z,16.25
2023-10-22T10:14:40.576Z,16.27
2023-10-22T10:15:40.511Z,16.31
2023-10-22T10:16:40.555Z,16.35
2023-10-22T10:17:40.512Z,16.16
2023-10-22T10:18:40.523Z,16.01
2023-10-22T10:19:40.490Z,15.96
2023-10-22T10:20:40.453Z,16.06
2023-10-22T10:21:40.661Z,16.22
2023-10-22T10:22:40.423Z,16.25
2023-10-22T10:23:40.400Z,16.18
2023-10-22T10:24:40.572Z,16.09
2023-10-22T10:25:40.396Z,16.12
2023-10-22T10:26:40.359Z,16.11
2023-10-22T10:27:40.383Z,16.18
2023-10-22T10:28:40.331Z,16.20
2023-10-22T10:29:40.330Z,16.15
2023-10-22T10:30:40.331Z,16.03
2023-10-22T10:31:40.286Z,15.92
2023-10-22T10:32:40.277Z,15.79
2023-10-22T10:33:40.322Z,16.18
2023-10-22T10:34:40.252Z,16.40
2023-10-22T10:35:40.233Z,16.30
2023-10-22T10:36:40.229Z,16.04
2023-10-22T10:37:40.233Z,16.09
2023-10-22T10:38:40.228Z,16.09
2023-10-22T10:39:40.176Z,16.52
2023-10-22T10:40:40.174Z,16.48
2023-10-22T10:41:40.179Z,16.52
2023-10-22T10:42:40.148Z,16.49
2023-10-22T10:43:40.173Z,16.41
2023-10-22T10:44:40.115Z,16.38
2023-10-22T10:45:40.137Z,16.75
2023-10-22T10:46:40.173Z,17.64
2023-10-22T10:47:40.152Z,18.04
2023-10-22T10:48:40.104Z,18.19
2023-10-22T10:49:40.069Z,18.15
2023-10-22T10:50:40.033Z,18.02
2023-10-22T10:51:40.017Z,18.39
2023-10-22T10:52:40.203Z,18.40
2023-10-22T10:53:45.080Z,18.04
2023-10-22T10:54:41.017Z,18.13
2023-10-22T10:55:41.436Z,18.76
2023-10-22T10:56:39.953Z,18.80
2023-10-22T10:57:39.966Z,19.15
2023-10-22T10:58:39.929Z,19.70
2023-10-22T10:59:47.105Z,20.08
2023-10-22T11:00:47.632Z,20.43
2023-10-22T11:01:40.964Z,20.72
2023-10-22T11:02:46.915Z,21.13
2023-10-22T11:03:39.882Z,21.23
2023-10-22T11:04:39.911Z,21.16
2023-10-22T11:05:46.884Z,21.08
2023-10-22T11:06:39.841Z,21.02
2023-10-22T11:07:39.821Z,21.11
2023-10-22T11:08:39.806Z,21.14
2023-10-22T11:09:39.826Z,21.19
2023-10-22T11:10:46.793Z,21.24
2023-10-22T11:11:46.810Z,21.57
2023-10-22T11:12:39.753Z,21.51
2023-10-22T11:13:39.764Z,21.42
2023-10-22T11:14:40.064Z,21.44
2023-10-22T11:15:46.792Z,21.34
2023-10-22T11:16:39.739Z,21.56
2023-10-22T11:17:48.400Z,21.54
2023-10-22T11:18:39.737Z,21.69
2023-10-22T11:19:39.883Z,21.78
2023-10-22T11:20:41.406Z,21.95
2023-10-22T11:21:39.650Z,21.97
2023-10-22T11:22:39.687Z,21.64
2023-10-22T11:23:39.619Z,20.89
2023-10-22T11:24:39.624Z,20.90
2023-10-22T11:25:39.602Z,21.02
2023-10-22T11:26:40.210Z,21.02
2023-10-22T11:27:39.602Z,20.96
2023-10-22T11:28:39.570Z,20.90
2023-10-22T11:29:39.590Z,21.09
2023-10-22T11:30:39.553Z,21.09
2023-10-22T11:31:39.540Z,21.02
2023-10-22T11:32:39.575Z,20.72
2023-10-22T11:33:48.228Z,20.74
2023-10-22T11:34:39.500Z,21.02
2023-10-22T11:35:46.476Z,21.02
2023-10-22T11:36:39.468Z,20.65
2023-10-22T11:37:39.470Z,20.62
2023-10-22T11:38:39.445Z,20.81
2023-10-22T11:39:46.510Z,20.87
2023-10-22T11:40:39.474Z,21.14
2023-10-22T11:41:39.392Z,21.21
2023-10-22T11:42:46.882Z,21.36
2023-10-22T11:43:39.361Z,21.24
2023-10-22T11:44:39.478Z,21.24
2023-10-22T11:45:39.359Z,21.27
2023-10-22T11:46:39.348Z,21.35
2023-10-22T11:47:39.368Z,21.27
2023-10-22T11:48:39.401Z,20.99
2023-10-22T11:49:39.292Z,20.51
2023-10-22T11:50:39.284Z,20.65
2023-10-22T11:51:39.260Z,20.76
2023-10-22T11:52:39.269Z,20.71
2023-10-22T11:53:39.257Z,20.83
2023-10-22T11:54:39.292Z,21.13
2023-10-22T11:55:39.225Z,21.08
2023-10-22T11:56:39.232Z,21.24
2023-10-22T11:57:39.188Z,21.60
2023-10-22T11:58:39.172Z,21.81
2023-10-22T11:59:39.170Z,21.99
2023-10-22T12:00:39.166Z,21.61
2023-10-22T12:01:39.310Z,21.20
2023-10-22T12:02:39.146Z,20.98
2023-10-22T12:03:39.286Z,20.58
2023-10-22T12:04:39.227Z,20.06
2023-10-22T12:05:39.083Z,20.06
2023-10-22T12:06:39.147Z,20.23
2023-10-22T12:07:39.071Z,20.24
2023-10-22T12:08:39.058Z,20.50
2023-10-22T12:09:39.038Z,20.68
2023-10-22T12:10:39.015Z,20.90
2023-10-22T12:11:39.008Z,21.19
2023-10-22T12:12:39.047Z,21.44
2023-10-22T12:13:38.993Z,21.57
2023-10-22T12:14:39.067Z,21.69
2023-10-22T12:15:38.960Z,21.71
2023-10-22T12:16:38.996Z,21.74
2023-10-22T12:17:39.022Z,21.44
2023-10-22T12:18:38.983Z,21.23
2023-10-22T12:19:38.931Z,21.35
2023-10-22T12:20:38.907Z,21.21
2023-10-22T12:21:38.905Z,20.86
2023-10-22T12:22:38.865Z,20.71
2023-10-22T12:23:48.887Z,20.61
2023-10-22T12:24:40.045Z,20.66
2023-10-22T12:25:38.828Z,20.56
2023-10-22T12:26:38.815Z,20.02
2023-10-22T12:27:38.872Z,19.97
2023-10-22T12:28:39.000Z,19.75
2023-10-22T12:29:38.799Z,19.54
2023-10-22T12:30:38.854Z,19.61
2023-10-22T12:31:38.762Z,19.58
2023-10-22T12:32:38.799Z,19.70
2023-10-22T12:33:38.811Z,19.72
2023-10-22T12:34:39.011Z,19.76
2023-10-22T12:35:38.719Z,19.91
2023-10-22T12:36:38.693Z,20.08
2023-10-22T12:37:38.720Z,20.24
2023-10-22T12:38:38.686Z,20.43
2023-10-22T12:39:38.804Z,20.61
2023-10-22T12:40:38.785Z,20.51
2023-10-22T12:41:38.683Z,20.43
2023-10-22T12:42:38.636Z,20.46
2023-10-22T12:43:38.620Z,20.62
2023-10-22T12:44:38.836Z,20.81
2023-10-22T12:45:38.697Z,20.83
2023-10-22T12:46:38.629Z,20.90
2023-10-22T12:47:38.596Z,20.87
2023-10-22T12:48:38.577Z,20.79
2023-10-22T12:49:38.626Z,20.81
2023-10-22T12:50:38.566Z,20.86
2023-10-22T12:51:38.572Z,20.86
2023-10-22T12:52:38.588Z,20.96
2023-10-22T12:53:38.506Z,20.89
2023-10-22T12:54:40.853Z,20.66
2023-10-22T12:55:38.475Z,20.61
2023-10-22T12:56:38.485Z,20.65
2023-10-22T12:57:38.614Z,20.61
2023-10-22T12:58:38.442Z,20.49
2023-10-22T12:59:38.420Z,20.49
2023-10-22T13:00:38.460Z,20.38
2023-10-22T13:01:38.472Z,20.28
2023-10-22T13:02:38.570Z,20.16
2023-10-22T13:03:38.470Z,19.98
2023-10-22T13:04:38.626Z,19.98
2023-10-22T13:05:38.344Z,19.79
2023-10-22T13:06:38.496Z,19.66
2023-10-22T13:07:38.282Z,19.42
2023-10-22T13:08:38.350Z,19.23
2023-10-22T13:09:38.270Z,19.08
2023-10-22T13:10:38.272Z,18.98
2023-10-22T13:11:38.231Z,18.95
2023-10-22T13:12:38.239Z,18.82
2023-10-22T13:13:38.228Z,18.73
2023-10-22T13:14:45.223Z,18.65
2023-10-22T13:15:38.304Z,18.59
2023-10-22T13:16:38.281Z,18.52
2023-10-22T13:17:45.764Z,18.31
2023-10-22T13:18:45.200Z,17.97
2023-10-22T13:19:45.629Z,17.76
2023-10-22T13:20:38.146Z,17.64
2023-10-22T13:21:38.115Z,17.54
2023-10-22T13:22:38.116Z,17.41
2023-10-22T13:23:38.068Z,17.20
2023-10-22T13:24:38.418Z,17.14
2023-10-22T13:25:38.050Z,17.03
2023-10-22T13:26:38.050Z,16.98
2023-10-22T13:27:45.058Z,16.85
2023-10-22T13:28:38.004Z,16.75
2023-10-22T13:29:45.483Z,16.73
2023-10-22T13:30:44.988Z,16.73